createdAt,value
2022-08-28T00:00:37.774Z,97735.63
2022-08-28T00:03:05.684Z,97769.56
2022-08-28T00:05:33.794Z,97757.38
2022-08-28T00:08:00.976Z,97766.97
2022-08-28T00:10:32.060Z,97769.66
2022-08-28T00:13:00.018Z,97767.06
2022-08-28T00:15:37.940Z,97772.22
2022-08-28T00:18:06.863Z,97770.19
2022-08-28T00:20:34.635Z,97756.03
2022-08-28T00:23:02.592Z,97770.84
2022-08-28T00:25:32.580Z,97767.31
2022-08-28T00:28:05.441Z,97771.50
2022-08-28T00:30:38.212Z,97772.78
2022-08-28T00:33:13.328Z,97761.69
2022-08-28T00:35:41.494Z,97748.56
2022-08-28T00:38:13.085Z,97750.00
2022-08-28T00:40:44.439Z,97756.19
2022-08-28T00:43:36.283Z,97762.50
2022-08-28T00:46:06.639Z,97757.72
2022-08-28T00:48:33.587Z,97747.41
2022-08-28T00:51:23.345Z,97769.28
2022-08-28T00:53:51.644Z,97775.34
2022-08-28T00:56:19.541Z,97751.72
2022-08-28T00:58:49.560Z,97765.88
2022-08-28T01:01:16.739Z,97775.19
2022-08-28T01:03:43.938Z,97775.41
2022-08-28T01:06:13.450Z,97778.81
2022-08-28T01:08:42.550Z,97774.69
2022-08-28T01:11:12.380Z,97772.47
2022-08-28T01:13:41.578Z,97773.28
2022-08-28T01:16:08.994Z,97765.53
2022-08-28T01:18:35.642Z,97768.09
2022-08-28T01:21:21.989Z,97769.97
2022-08-28T01:23:53.663Z,97771.47
2022-08-28T01:26:23.084Z,97747.75
2022-08-28T01:28:49.891Z,97768.28
2022-08-28T01:31:17.178Z,97762.00
2022-08-28T01:33:46.101Z,97755.78
2022-08-28T01:36:14.669Z,97766.97
2022-08-28T01:38:43.743Z,97758.44
2022-08-28T01:41:12.713Z,97768.09
2022-08-28T01:43:40.418Z,97747.47
2022-08-28T01:46:08.028Z,97753.19
2022-08-28T01:48:37.684Z,97766.16
2022-08-28T01:51:08.220Z,97757.75
2022-08-28T01:53:35.346Z,97752.81
2022-08-28T01:56:04.818Z,97759.25
2022-08-28T01:58:37.402Z,97765.28
2022-08-28T02:01:16.540Z,97738.25
2022-08-28T02:03:43.437Z,97757.75
2022-08-28T02:06:10.813Z,97761.47
2022-08-28T02:08:37.544Z,97754.25
2022-08-28T02:11:06.456Z,97759.44
2022-08-28T02:13:34.952Z,97742.09
2022-08-28T02:16:01.682Z,97763.47
2022-08-28T02:18:28.546Z,97766.22
2022-08-28T02:20:55.212Z,97758.19
2022-08-28T02:23:21.987Z,97759.03
2022-08-28T02:25:49.805Z,97740.16
2022-08-28T02:28:17.577Z,97745.88
2022-08-28T02:30:44.244Z,97768.66
2022-08-28T02:33:10.871Z,97758.47
2022-08-28T02:35:37.461Z,97766.44
2022-08-28T02:38:04.426Z,97759.50
2022-08-28T02:40:31.663Z,97761.78
2022-08-28T02:42:58.349Z,97750.94
2022-08-28T02:45:25.096Z,97742.72
2022-08-28T02:47:53.045Z,97758.91
2022-08-28T02:50:20.300Z,97744.56
2022-08-28T02:52:47.365Z,97763.66
2022-08-28T02:55:17.360Z,97763.13
2022-08-28T02:57:44.784Z,97762.09
2022-08-28T03:00:15.855Z,97764.19
2022-08-28T03:02:45.464Z,97754.34
2022-08-28T03:05:15.706Z,97751.81
2022-08-28T03:07:42.801Z,97748.53
2022-08-28T03:10:10.139Z,97758.13
2022-08-28T03:12:39.409Z,97763.50
2022-08-28T03:15:10.198Z,97740.94
2022-08-28T03:17:37.261Z,97757.03
2022-08-28T03:20:10.506Z,97738.28
2022-08-28T03:22:56.272Z,97761.09
2022-08-28T03:25:24.735Z,97736.88
2022-08-28T03:27:51.909Z,97757.44
2022-08-28T03:30:19.690Z,97746.22
2022-08-28T03:32:46.316Z,97750.31
2022-08-28T03:35:13.432Z,97764.09
2022-08-28T03:37:43.244Z,97762.66
2022-08-28T03:40:14.625Z,97754.13
2022-08-28T03:42:41.372Z,97766.00
2022-08-28T03:45:12.610Z,97761.72
2022-08-28T03:47:41.885Z,97745.94
2022-08-28T03:50:14.341Z,97775.19
2022-08-28T03:52:42.146Z,97752.59
2022-08-28T03:55:11.785Z,97772.91
2022-08-28T03:57:39.002Z,97753.56
2022-08-28T04:00:11.487Z,97771.25
2022-08-28T04:02:38.172Z,97741.97
2022-08-28T04:05:05.667Z,97763.28
2022-08-28T04:07:32.274Z,97770.25
2022-08-28T04:09:58.842Z,97765.34
2022-08-28T04:12:25.729Z,97767.81
2022-08-28T04:14:54.277Z,97758.84
2022-08-28T04:17:21.276Z,97777.53
2022-08-28T04:19:47.821Z,97757.59
2022-08-28T04:22:14.400Z,97773.00
2022-08-28T04:24:42.779Z,97782.25
2022-08-28T04:27:09.335Z,97769.16
2022-08-28T04:29:36.136Z,97767.03
2022-08-28T04:32:03.105Z,97786.00
2022-08-28T04:34:29.720Z,97779.63
2022-08-28T04:36:56.308Z,97772.66
2022-08-28T04:39:22.888Z,97788.66
2022-08-28T04:41:50.293Z,97790.53
2022-08-28T04:44:16.967Z,97773.09
2022-08-28T04:46:48.236Z,97789.13
2022-08-28T04:49:15.654Z,97790.34
2022-08-28T04:51:44.050Z,97779.28
2022-08-28T04:54:16.287Z,97784.78
2022-08-28T04:56:43.858Z,97778.91
2022-08-28T04:59:11.759Z,97792.28
2022-08-28T05:01:40.846Z,97792.16
2022-08-28T05:04:08.053Z,97788.72
2022-08-28T05:06:34.601Z,97797.25
2022-08-28T05:09:03.921Z,97812.25
2022-08-28T05:11:34.088Z,97810.59
2022-08-28T05:14:05.668Z,97808.34
2022-08-28T05:16:34.882Z,97812.69
2022-08-28T05:19:03.318Z,97819.44
2022-08-28T05:21:39.378Z,97796.28
2022-08-28T05:24:07.367Z,97825.63
2022-08-28T05:26:34.928Z,97828.09
2022-08-28T05:29:02.016Z,97829.72
2022-08-28T05:31:30.437Z,97830.56
2022-08-28T05:33:58.560Z,97835.50
2022-08-28T05:36:32.945Z,97844.13
2022-08-28T05:39:01.503Z,97837.53
2022-08-28T05:41:30.783Z,97824.16
2022-08-28T05:43:59.792Z,97845.91
2022-08-28T05:46:28.256Z,97835.44
2022-08-28T05:48:56.148Z,97845.50
2022-08-28T05:51:24.406Z,97821.22
2022-08-28T05:53:51.626Z,97844.16
2022-08-28T05:56:24.141Z,97834.91
2022-08-28T05:58:51.002Z,97836.78
2022-08-28T06:01:20.789Z,97837.41
2022-08-28T06:03:55.266Z,97811.53
2022-08-28T06:06:24.837Z,97820.97
2022-08-28T06:08:59.144Z,97843.94
2022-08-28T06:11:30.949Z,97850.31
2022-08-28T06:14:02.608Z,97842.91
2022-08-28T06:16:31.848Z,97828.34
2022-08-28T06:18:59.376Z,97827.47
2022-08-28T06:21:26.439Z,97811.22
2022-08-28T06:23:53.383Z,97817.13
2022-08-28T06:26:20.062Z,97816.50
2022-08-28T06:28:47.319Z,97837.00
2022-08-28T06:31:24.032Z,97816.22
2022-08-28T06:33:56.217Z,97832.53
2022-08-28T06:36:24.079Z,97843.97
2022-08-28T06:38:51.433Z,97824.44
2022-08-28T06:41:18.440Z,97796.25
2022-08-28T06:43:48.106Z,97846.66
2022-08-28T06:46:17.230Z,97840.06
2022-08-28T06:48:43.863Z,97833.81
2022-08-28T06:51:12.542Z,97840.13
2022-08-28T06:53:40.969Z,97849.00
2022-08-28T06:56:26.226Z,97843.94
2022-08-28T06:58:56.216Z,97849.66
2022-08-28T07:01:32.584Z,97853.00
2022-08-28T07:04:01.630Z,97838.47
2022-08-28T07:06:32.233Z,97838.69
2022-08-28T07:08:58.749Z,97837.00
2022-08-28T07:11:28.847Z,97843.88
2022-08-28T07:13:58.613Z,97846.03
2022-08-28T07:16:28.604Z,97844.25
2022-08-28T07:18:55.541Z,97837.97
2022-08-28T07:21:22.129Z,97847.34
2022-08-28T07:23:49.145Z,97836.44
2022-08-28T07:26:22.792Z,97827.69
2022-08-28T07:28:51.547Z,97835.91
2022-08-28T07:31:21.829Z,97840.19
2022-08-28T07:33:53.883Z,97847.75
2022-08-28T07:36:28.936Z,97846.63
2022-08-28T07:38:57.980Z,97849.25
2022-08-28T07:41:28.394Z,97852.75
2022-08-28T07:44:13.527Z,97811.56
2022-08-28T07:46:41.273Z,97842.47
2022-08-28T07:49:09.038Z,97839.50
2022-08-28T07:51:35.969Z,97829.13
2022-08-28T07:54:04.104Z,97835.81
2022-08-28T07:56:31.764Z,97839.59
2022-08-28T07:59:00.256Z,97839.78
2022-08-28T08:01:30.923Z,97819.72
2022-08-28T08:04:01.226Z,97835.72
2022-08-28T08:06:33.725Z,97831.25
2022-08-28T08:09:01.905Z,97817.09
2022-08-28T08:11:32.595Z,97838.81
2022-08-28T08:14:04.664Z,97842.22
2022-08-28T08:16:38.738Z,97843.19
2022-08-28T08:19:05.725Z,97842.00
2022-08-28T08:21:32.760Z,97839.31
2022-08-28T08:23:59.634Z,97835.66
2022-08-28T08:26:28.588Z,97841.44
2022-08-28T08:28:56.426Z,97837.91
2022-08-28T08:31:26.701Z,97853.69
2022-08-28T08:33:56.606Z,97842.91
2022-08-28T08:36:25.684Z,97830.63
2022-08-28T08:39:00.025Z,97823.47
2022-08-28T08:41:35.120Z,97842.34
2022-08-28T08:44:21.566Z,97847.50
2022-08-28T08:46:52.810Z,97830.41
2022-08-28T08:49:25.969Z,97848.88
2022-08-28T08:52:32.062Z,97848.31
2022-08-28T08:55:25.166Z,97843.44
2022-08-28T08:57:59.430Z,97832.53
2022-08-28T09:00:27.222Z,97848.94
2022-08-28T09:03:15.627Z,97841.59
2022-08-28T09:05:55.005Z,97851.09
2022-08-28T09:08:34.036Z,97842.81
2022-08-28T09:11:13.878Z,97850.91
2022-08-28T09:13:52.214Z,97850.63
2022-08-28T09:16:47.642Z,97842.03
2022-08-28T09:19:19.387Z,97839.13
2022-08-28T09:21:47.873Z,97843.31
2022-08-28T09:24:25.740Z,97847.94
2022-08-28T09:27:22.195Z,97839.75
2022-08-28T09:29:58.060Z,97844.22
2022-08-28T09:32:29.903Z,97851.97
2022-08-28T09:35:06.411Z,97851.19
2022-08-28T09:37:35.744Z,97849.56
2022-08-28T09:40:16.858Z,97848.41
2022-08-28T09:43:24.327Z,97858.81
2022-08-28T09:45:54.594Z,97856.50
2022-08-28T09:48:24.993Z,97846.50
2022-08-28T09:51:04.739Z,97847.84
2022-08-28T09:53:36.700Z,97851.25
2022-08-28T09:56:15.585Z,97854.09
2022-08-28T09:58:47.355Z,97859.13
2022-08-28T10:01:35.235Z,97856.22
2022-08-28T10:07:40.076Z,97844.09
2022-08-28T10:10:17.329Z,97833.91
2022-08-28T10:12:54.084Z,97847.50
2022-08-28T10:15:43.275Z,97845.84
2022-08-28T10:18:41.222Z,97850.97
2022-08-28T10:21:13.485Z,97835.94
2022-08-28T10:24:26.401Z,97855.16
2022-08-28T10:27:09.175Z,97845.31
2022-08-28T10:29:38.612Z,97841.34
2022-08-28T10:32:10.918Z,97848.88
2022-08-28T10:34:40.167Z,97845.41
2022-08-28T10:37:21.541Z,97846.41
2022-08-28T10:39:55.253Z,97839.38
2022-08-28T10:42:35.974Z,97849.28
2022-08-28T10:45:32.280Z,97834.50
2022-08-28T10:48:05.517Z,97845.22
2022-08-28T10:50:50.892Z,97852.44
2022-08-28T10:53:21.652Z,97842.03
2022-08-28T10:55:51.196Z,97851.75
2022-08-28T10:58:24.895Z,97837.16
2022-08-28T11:01:05.836Z,97846.25
2022-08-28T11:03:41.646Z,97845.53
2022-08-28T11:06:20.648Z,97834.63
2022-08-28T11:08:53.276Z,97831.63
2022-08-28T11:11:48.928Z,97837.81
2022-08-28T11:14:47.082Z,97842.13
2022-08-28T11:17:30.446Z,97838.22
2022-08-28T11:20:25.024Z,97844.41
2022-08-28T11:23:06.847Z,97844.47
2022-08-28T11:25:54.781Z,97837.00
2022-08-28T11:28:25.262Z,97839.03
2022-08-28T11:30:57.990Z,97847.44
2022-08-28T11:33:45.308Z,97843.41
2022-08-28T11:36:32.616Z,97843.41
2022-08-28T11:39:02.584Z,97833.91
2022-08-28T11:41:30.639Z,97831.00
2022-08-28T11:44:09.261Z,97835.50
2022-08-28T11:46:38.472Z,97835.34
2022-08-28T11:49:32.761Z,97832.50
2022-08-28T11:52:05.492Z,97833.69
2022-08-28T11:55:03.619Z,97824.06
2022-08-28T11:57:52.743Z,97822.69
2022-08-28T12:00:22.072Z,97831.84
2022-08-28T12:02:53.236Z,97828.16
2022-08-28T12:05:32.065Z,97831.66
2022-08-28T12:08:05.172Z,97830.50
2022-08-28T12:10:31.733Z,97822.44
2022-08-28T12:13:07.296Z,97822.53
2022-08-28T12:15:34.531Z,97819.03
2022-08-28T12:18:11.752Z,97820.03
2022-08-28T12:20:53.981Z,97820.25
2022-08-28T12:23:23.464Z,97818.13
2022-08-28T12:26:07.013Z,97817.06
2022-08-28T12:28:44.016Z,97822.41
2022-08-28T12:31:52.469Z,97817.06
2022-08-28T12:35:07.613Z,97817.84
2022-08-28T12:37:52.624Z,97819.09
2022-08-28T12:40:35.158Z,97823.75
2022-08-28T12:43:07.959Z,97818.19
2022-08-28T12:45:37.626Z,97815.88
2022-08-28T12:48:17.521Z,97817.00
2022-08-28T12:50:44.517Z,97815.34
2022-08-28T12:53:17.474Z,97824.16
2022-08-28T12:55:46.534Z,97800.66
2022-08-28T12:58:35.951Z,97801.81
2022-08-28T13:01:07.485Z,97811.88
2022-08-28T13:03:34.405Z,97814.72
2022-08-28T13:06:05.440Z,97799.75
2022-08-28T13:08:36.775Z,97816.66
2022-08-28T13:11:03.502Z,97819.31
2022-08-28T13:13:40.197Z,97812.41
2022-08-28T13:16:10.587Z,97806.72
2022-08-28T13:18:59.365Z,97802.47
2022-08-28T13:21:33.751Z,97800.47
2022-08-28T13:24:26.259Z,97800.59
2022-08-28T13:27:14.003Z,97791.63
2022-08-28T13:30:00.095Z,97787.16
2022-08-28T13:32:30.160Z,97791.09
2022-08-28T13:35:22.688Z,97788.63
2022-08-28T13:37:57.175Z,97785.94
2022-08-28T13:43:15.703Z,97771.50
2022-08-28T13:45:45.831Z,97760.53
2022-08-28T13:48:14.415Z,97782.47
2022-08-28T13:50:47.202Z,97763.28
2022-08-28T13:53:16.680Z,97765.75
2022-08-28T13:55:43.493Z,97762.97
2022-08-28T13:58:10.654Z,97766.00
2022-08-28T14:00:43.825Z,97767.81
2022-08-28T14:03:29.256Z,97759.75
2022-08-28T14:05:59.031Z,97749.84
2022-08-28T14:08:28.831Z,97754.88
2022-08-28T14:10:55.524Z,97747.78
2022-08-28T14:13:27.433Z,97752.91
2022-08-28T14:15:58.841Z,97751.72
2022-08-28T14:18:28.915Z,97747.88
2022-08-28T14:20:57.847Z,97747.34
2022-08-28T14:23:24.491Z,97743.59
2022-08-28T14:25:51.434Z,97734.84
2022-08-28T14:28:18.017Z,97738.97
2022-08-28T14:30:47.234Z,97739.56
2022-08-28T14:33:16.812Z,97740.19
2022-08-28T14:35:43.530Z,97730.94
2022-08-28T14:38:10.737Z,97737.41
2022-08-28T14:40:40.503Z,97749.97
2022-08-28T14:43:09.988Z,97741.22
2022-08-28T14:45:45.804Z,97737.81
2022-08-28T14:48:14.336Z,97743.00
2022-08-28T14:50:42.612Z,97739.38
2022-08-28T14:53:10.007Z,97747.28
2022-08-28T14:55:49.034Z,97721.53
2022-08-28T14:58:17.929Z,97737.66
2022-08-28T15:00:49.302Z,97739.38
2022-08-28T15:03:18.132Z,97745.19
2022-08-28T15:05:45.492Z,97736.56
2022-08-28T15:08:15.366Z,97733.22
2022-08-28T15:10:43.159Z,97728.81
2022-08-28T15:13:10.892Z,97736.03
2022-08-28T15:15:42.204Z,97722.38
2022-08-28T15:18:10.456Z,97717.00
2022-08-28T15:20:48.631Z,97728.75
2022-08-28T15:23:15.396Z,97713.16
2022-08-28T15:25:42.258Z,97710.31
2022-08-28T15:28:09.252Z,97706.41
2022-08-28T15:30:36.696Z,97712.09
2022-08-28T15:33:06.501Z,97711.41
2022-08-28T15:35:34.479Z,97712.97
2022-08-28T15:38:01.253Z,97698.75
2022-08-28T15:40:46.381Z,97707.06
2022-08-28T15:43:13.264Z,97730.13
2022-08-28T15:45:41.844Z,97725.91
2022-08-28T15:48:09.287Z,97717.19
2022-08-28T15:50:35.904Z,97719.28
2022-08-28T15:53:06.757Z,97732.09
2022-08-28T15:55:38.374Z,97733.72
2022-08-28T15:58:13.888Z,97727.84
2022-08-28T16:00:41.065Z,97740.97
2022-08-28T16:03:07.682Z,97734.97
2022-08-28T16:05:39.682Z,97732.09
2022-08-28T16:08:07.592Z,97722.34
2022-08-28T16:10:34.353Z,97719.16
2022-08-28T16:13:03.368Z,97730.94
2022-08-28T16:15:32.157Z,97718.91
2022-08-28T16:17:59.522Z,97720.94
2022-08-28T16:20:28.322Z,97711.34
2022-08-28T16:22:58.029Z,97715.97
2022-08-28T16:25:24.822Z,97719.91
2022-08-28T16:27:51.748Z,97727.41
2022-08-28T16:30:18.871Z,97732.53
2022-08-28T16:32:46.929Z,97708.97
2022-08-28T16:35:15.138Z,97729.13
2022-08-28T16:37:42.982Z,97727.50
2022-08-28T16:40:11.768Z,97719.22
2022-08-28T16:42:42.095Z,97725.25
2022-08-28T16:45:18.183Z,97712.06
2022-08-28T16:47:48.024Z,97702.78
2022-08-28T16:50:15.104Z,97713.88
2022-08-28T16:52:44.715Z,97704.91
2022-08-28T16:55:20.352Z,97702.91
2022-08-28T16:57:47.223Z,97695.84
2022-08-28T17:00:14.376Z,97691.34
2022-08-28T17:02:42.543Z,97704.56
2022-08-28T17:05:17.293Z,97712.88
2022-08-28T17:07:44.842Z,97685.06
2022-08-28T17:10:13.904Z,97693.25
2022-08-28T17:12:41.203Z,97705.63
2022-08-28T17:15:09.546Z,97707.06
2022-08-28T17:17:38.867Z,97708.13
2022-08-28T17:20:07.897Z,97715.66
2022-08-28T17:22:35.066Z,97693.38
2022-08-28T17:25:13.557Z,97707.25
2022-08-28T17:27:41.568Z,97697.00
2022-08-28T17:30:10.141Z,97707.63
2022-08-28T17:32:37.056Z,97711.09
2022-08-28T17:35:05.521Z,97706.22
2022-08-28T17:37:32.413Z,97712.09
2022-08-28T17:39:59.267Z,97695.25
2022-08-28T17:42:26.020Z,97709.88
2022-08-28T17:44:52.819Z,97704.00
2022-08-28T17:47:27.420Z,97703.97
2022-08-28T17:50:03.194Z,97712.41
2022-08-28T17:52:32.620Z,97709.38
2022-08-28T17:55:00.694Z,97699.84
2022-08-28T17:57:30.487Z,97716.56
2022-08-28T17:59:59.080Z,97711.56
2022-08-28T18:02:26.461Z,97711.16
2022-08-28T18:04:54.012Z,97700.19
2022-08-28T18:07:20.704Z,97719.56
2022-08-28T18:09:50.690Z,97723.97
2022-08-28T18:12:17.635Z,97712.63
2022-08-28T18:14:44.287Z,97713.25
2022-08-28T18:17:11.428Z,97730.38
2022-08-28T18:19:41.343Z,97713.88
2022-08-28T18:22:10.329Z,97727.47
2022-08-28T18:24:37.448Z,97734.81
2022-08-28T18:27:05.332Z,97735.66
2022-08-28T18:29:31.877Z,97733.47
2022-08-28T18:31:58.406Z,97741.09
2022-08-28T18:34:25.009Z,97746.81
2022-08-28T18:36:51.600Z,97757.13
2022-08-28T18:39:29.176Z,97744.13
2022-08-28T18:41:58.169Z,97748.19
2022-08-28T18:44:25.364Z,97758.50
2022-08-28T18:46:52.332Z,97753.34
2022-08-28T18:49:19.034Z,97766.66
2022-08-28T18:51:46.370Z,97759.03
2022-08-28T18:54:16.407Z,97770.69
2022-08-28T18:56:43.594Z,97773.66
2022-08-28T18:59:10.339Z,97770.41
2022-08-28T19:01:37.007Z,97777.72
2022-08-28T19:04:04.686Z,97770.66
2022-08-28T19:06:31.797Z,97774.97
2022-08-28T19:08:58.804Z,97794.19
2022-08-28T19:11:25.710Z,97784.94
2022-08-28T19:13:52.329Z,97791.72
2022-08-28T19:16:20.644Z,97795.50
2022-08-28T19:18:47.982Z,97802.47
2022-08-28T19:21:19.739Z,97801.09
2022-08-28T19:23:55.250Z,97809.41
2022-08-28T19:26:26.983Z,97811.00
2022-08-28T19:28:54.221Z,97810.38
2022-08-28T19:31:21.324Z,97814.44
2022-08-28T19:33:48.305Z,97822.78
2022-08-28T19:36:15.863Z,97827.81
2022-08-28T19:38:43.178Z,97824.53
2022-08-28T19:41:12.650Z,97827.19
2022-08-28T19:43:44.566Z,97826.03
2022-08-28T19:46:19.611Z,97830.84
2022-08-28T19:48:48.834Z,97839.72
2022-08-28T19:51:22.160Z,97833.69
2022-08-28T19:53:56.710Z,97835.81
2022-08-28T19:56:29.882Z,97842.50
2022-08-28T19:58:59.127Z,97835.97
2022-08-28T20:01:31.373Z,97837.19
2022-08-28T20:03:59.516Z,97833.94
2022-08-28T20:06:27.308Z,97832.81
2022-08-28T20:08:53.869Z,97824.59
2022-08-28T20:11:25.018Z,97837.81
2022-08-28T20:13:56.612Z,97837.75
2022-08-28T20:16:28.179Z,97840.41
2022-08-28T20:18:57.696Z,97833.25
2022-08-28T20:21:36.687Z,97840.97
2022-08-28T20:24:06.080Z,97833.06
2022-08-28T20:26:36.381Z,97836.28
2022-08-28T20:29:05.200Z,97836.47
2022-08-28T20:31:33.869Z,97829.59
2022-08-28T20:34:00.515Z,97831.41
2022-08-28T20:36:27.125Z,97834.31
2022-08-28T20:38:54.417Z,97834.78
2022-08-28T20:41:21.545Z,97830.13
2022-08-28T20:43:48.486Z,97826.31
2022-08-28T20:46:19.788Z,97825.44
2022-08-28T20:48:46.687Z,97835.41
2022-08-28T20:51:13.234Z,97824.25
2022-08-28T20:53:40.276Z,97818.88
2022-08-28T20:56:09.770Z,97814.97
2022-08-28T20:58:37.175Z,97843.34
2022-08-28T21:01:04.800Z,97838.94
2022-08-28T21:03:31.392Z,97838.88
2022-08-28T21:05:57.932Z,97835.44
2022-08-28T21:08:24.507Z,97833.09
2022-08-28T21:10:51.665Z,97852.66
2022-08-28T21:13:18.211Z,97847.00
2022-08-28T21:15:44.766Z,97842.19
2022-08-28T21:18:12.227Z,97849.28
2022-08-28T21:20:40.045Z,97832.81
2022-08-28T21:23:07.110Z,97840.75
2022-08-28T21:25:33.675Z,97852.09
2022-08-28T21:28:04.196Z,97859.72
2022-08-28T21:30:31.446Z,97842.78
2022-08-28T21:32:58.063Z,97862.09
2022-08-28T21:35:24.756Z,97862.56
2022-08-28T21:37:51.485Z,97842.28
2022-08-28T21:40:19.589Z,97845.22
2022-08-28T21:42:46.657Z,97852.47
2022-08-28T21:45:13.218Z,97858.69
2022-08-28T21:47:41.938Z,97843.59
2022-08-28T21:50:10.685Z,97842.56
2022-08-28T21:52:37.657Z,97868.06
2022-08-28T21:55:08.293Z,97867.91
2022-08-28T21:57:37.362Z,97870.88
2022-08-28T22:00:07.577Z,97869.16
2022-08-28T22:02:34.222Z,97858.19
2022-08-28T22:05:01.135Z,97851.78
2022-08-28T22:07:27.747Z,97848.38
2022-08-28T22:09:54.349Z,97867.00
2022-08-28T22:12:20.909Z,97872.13
2022-08-28T22:14:47.711Z,97848.16
2022-08-28T22:17:15.141Z,97876.81
2022-08-28T22:19:41.885Z,97865.00
2022-08-28T22:22:28.010Z,97844.88
2022-08-28T22:24:54.873Z,97867.44
2022-08-28T22:27:21.550Z,97873.81
2022-08-28T22:29:48.213Z,97863.25
2022-08-28T22:32:15.233Z,97860.88
2022-08-28T22:34:45.031Z,97874.03
2022-08-28T22:37:12.804Z,97887.31
2022-08-28T22:39:40.803Z,97870.38
2022-08-28T22:42:10.633Z,97891.56
2022-08-28T22:44:38.445Z,97886.44
2022-08-28T22:47:05.722Z,97890.47
2022-08-28T22:49:32.295Z,97879.84
2022-08-28T22:51:58.842Z,97886.19
2022-08-28T22:54:27.172Z,97876.69
2022-08-28T22:56:53.773Z,97882.97
2022-08-28T22:59:20.375Z,97893.47
2022-08-28T23:01:47.491Z,97893.47
2022-08-28T23:04:14.218Z,97876.91
2022-08-28T23:06:44.576Z,97893.06
2022-08-28T23:09:11.217Z,97890.16
2022-08-28T23:11:37.983Z,97895.75
2022-08-28T23:14:05.755Z,97879.97
2022-08-28T23:16:33.565Z,97875.41
2022-08-28T23:19:08.802Z,97872.94
2022-08-28T23:21:40.841Z,97874.34
2022-08-28T23:24:12.318Z,97887.22
2022-08-28T23:26:38.938Z,97880.19
2022-08-28T23:29:05.683Z,97883.00
2022-08-28T23:31:32.322Z,97893.41
2022-08-28T23:33:58.931Z,97883.59
2022-08-28T23:36:25.974Z,97882.41
2022-08-28T23:38:52.636Z,97873.59
2022-08-28T23:41:19.341Z,97888.00
2022-08-28T23:43:47.077Z,97876.84
2022-08-28T23:46:18.321Z,97891.81
2022-08-28T23:48:45.959Z,97885.13
2022-08-28T23:51:16.792Z,97872.47
2022-08-28T23:53:46.351Z,97890.63
2022-08-28T23:56:14.523Z,97880.16
2022-08-28T23:58:44.660Z,97884.31
